sensor_id;sensor_type;location;lat;lon;timestamp;P1;durP1;ratioP1;P2;durP2;ratioP2
7659;SDS011;3872;47.902;8.162;2023-11-22T00:01:10;8.23;;;1.73;;
7659;SDS011;3872;47.902;8.162;2023-11-22T00:03:37;7.37;;;2.20;;
7659;SDS011;3872;47.902;8.162;2023-11-22T00:06:04;8.03;;;1.70;;
7659;SDS011;3872;47.902;8.162;2023-11-22T00:08:32;6.10;;;2.10;;
7659;SDS011;3872;47.902;8.162;2023-11-22T00:10:59;5.87;;;2.20;;
7659;SDS011;3872;47.902;8.162;2023-11-22T00:13:26;4.70;;;1.93;;
7659;SDS011;3872;47.902;8.162;2023-11-22T00:15:53;4.97;;;2.10;;
7659;SDS011;3872;47.902;8.162;2023-11-22T00:18:20;8.73;;;2.53;;
7659;SDS011;3872;47.902;8.162;2023-11-22T00:20:47;4.57;;;1.57;;
7659;SDS011;3872;47.902;8.162;2023-11-22T00:23:14;8.33;;;2.17;;
7659;SDS011;3872;47.902;8.162;2023-11-22T00:25:41;9.97;;;2.10;;
7659;SDS011;3872;47.902;8.162;2023-11-22T00:28:07;6.90;;;2.27;;
7659;SDS011;3872;47.902;8.162;2023-11-22T00:30:36;7.20;;;2.00;;
7659;SDS011;3872;47.902;8.162;2023-11-22T00:33:04;4.57;;;1.47;;
7659;SDS011;3872;47.902;8.162;2023-11-22T00:35:31;3.97;;;1.47;;
7659;SDS011;3872;47.902;8.162;2023-11-22T00:37:57;7.43;;;1.60;;
7659;SDS011;3872;47.902;8.162;2023-11-22T00:40:24;6.30;;;2.10;;
7659;SDS011;3872;47.902;8.162;2023-11-22T00:42:51;8.70;;;2.97;;
7659;SDS011;3872;47.902;8.162;2023-11-22T00:45:18;8.10;;;3.23;;
7659;SDS011;3872;47.902;8.162;2023-11-22T00:47:45;6.47;;;3.00;;
7659;SDS011;3872;47.902;8.162;2023-11-22T00:50:13;16.90;;;6.10;;
7659;SDS011;3872;47.902;8.162;2023-11-22T00:52:39;23.47;;;9.50;;
7659;SDS011;3872;47.902;8.162;2023-11-22T00:55:09;23.70;;;8.30;;
7659;SDS011;3872;47.902;8.162;2023-11-22T00:57:37;65.90;;;21.80;;
7659;SDS011;3872;47.902;8.162;2023-11-22T01:00:04;56.43;;;19.00;;
7659;SDS011;3872;47.902;8.162;2023-11-22T01:02:34;15.13;;;5.23;;
7659;SDS011;3872;47.902;8.162;2023-11-22T01:05:03;28.10;;;11.07;;
7659;SDS011;3872;47.902;8.162;2023-11-22T01:07:33;37.67;;;11.60;;
7659;SDS011;3872;47.902;8.162;2023-11-22T01:10:00;25.93;;;9.20;;
7659;SDS011;3872;47.902;8.162;2023-11-22T01:12:27;19.03;;;8.17;;
7659;SDS011;3872;47.902;8.162;2023-11-22T01:14:54;20.23;;;7.77;;
7659;SDS011;3872;47.902;8.162;2023-11-22T01:17:20;12.53;;;6.00;;
7659;SDS011;3872;47.902;8.162;2023-11-22T01:19:47;15.03;;;6.43;;
7659;SDS011;3872;47.902;8.162;2023-11-22T01:22:13;16.50;;;4.43;;
7659;SDS011;3872;47.902;8.162;2023-11-22T01:24:41;10.83;;;3.57;;
7659;SDS011;3872;47.902;8.162;2023-11-22T01:27:08;7.00;;;2.53;;
7659;SDS011;3872;47.902;8.162;2023-11-22T01:29:34;6.33;;;2.17;;
7659;SDS011;3872;47.902;8.162;2023-11-22T01:32:01;15.50;;;2.20;;
7659;SDS011;3872;47.902;8.162;2023-11-22T01:34:28;8.37;;;2.27;;
7659;SDS011;3872;47.902;8.162;2023-11-22T01:36:55;6.50;;;2.20;;
7659;SDS011;3872;47.902;8.162;2023-11-22T01:39:23;7.20;;;2.27;;
7659;SDS011;3872;47.902;8.162;2023-11-22T01:41:51;3.60;;;1.53;;
7659;SDS011;3872;47.902;8.162;2023-11-22T01:44:17;4.83;;;2.07;;
7659;SDS011;3872;47.902;8.162;2023-11-22T01:46:44;9.13;;;2.20;;
7659;SDS011;3872;47.902;8.162;2023-11-22T01:49:11;4.10;;;1.50;;
7659;SDS011;3872;47.902;8.162;2023-11-22T01:51:39;5.90;;;1.70;;
7659;SDS011;3872;47.902;8.162;2023-11-22T01:54:07;4.53;;;1.60;;
7659;SDS011;3872;47.902;8.162;2023-11-22T01:56:35;7.23;;;1.70;;
7659;SDS011;3872;47.902;8.162;2023-11-22T01:59:06;5.10;;;1.60;;
7659;SDS011;3872;47.902;8.162;2023-11-22T02:01:33;5.37;;;1.70;;
7659;SDS011;3872;47.902;8.162;2023-11-22T02:03:59;7.17;;;2.17;;
7659;SDS011;3872;47.902;8.162;2023-11-22T02:06:26;7.00;;;1.70;;
7659;SDS011;3872;47.902;8.162;2023-11-22T02:08:54;4.97;;;1.90;;
7659;SDS011;3872;47.902;8.162;2023-11-22T02:11:21;3.70;;;1.50;;
7659;SDS011;3872;47.902;8.162;2023-11-22T02:13:49;5.40;;;1.97;;
7659;SDS011;3872;47.902;8.162;2023-11-22T02:16:17;4.00;;;1.40;;
7659;SDS011;3872;47.902;8.162;2023-11-22T02:18:45;5.73;;;1.90;;
7659;SDS011;3872;47.902;8.162;2023-11-22T02:21:13;4.53;;;1.97;;
7659;SDS011;3872;47.902;8.162;2023-11-22T02:23:42;5.70;;;2.20;;
7659;SDS011;3872;47.902;8.162;2023-11-22T02:26:08;4.07;;;1.53;;
7659;SDS011;3872;47.902;8.162;2023-11-22T02:28:35;6.33;;;1.80;;
7659;SDS011;3872;47.902;8.162;2023-11-22T02:31:03;5.70;;;2.00;;
7659;SDS011;3872;47.902;8.162;2023-11-22T02:33:29;4.03;;;1.70;;
7659;SDS011;3872;47.902;8.162;2023-11-22T02:35:57;11.33;;;2.37;;
7659;SDS011;3872;47.902;8.162;2023-11-22T02:38:24;7.97;;;1.30;;
7659;SDS011;3872;47.902;8.162;2023-11-22T02:40:52;4.63;;;1.63;;
7659;SDS011;3872;47.902;8.162;2023-11-22T02:43:19;6.60;;;1.70;;
7659;SDS011;3872;47.902;8.162;2023-11-22T02:45:48;7.03;;;2.10;;
7659;SDS011;3872;47.902;8.162;2023-11-22T02:48:14;4.10;;;1.77;;
7659;SDS011;3872;47.902;8.162;2023-11-22T02:50:41;8.73;;;1.43;;
7659;SDS011;3872;47.902;8.162;2023-11-22T02:53:08;13.77;;;1.77;;
7659;SDS011;3872;47.902;8.162;2023-11-22T02:55:35;7.53;;;1.80;;
7659;SDS011;3872;47.902;8.162;2023-11-22T02:58:03;4.10;;;1.40;;
7659;SDS011;3872;47.902;8.162;2023-11-22T03:00:30;5.80;;;1.40;;
7659;SDS011;3872;47.902;8.162;2023-11-22T03:02:59;7.40;;;2.07;;
7659;SDS011;3872;47.902;8.162;2023-11-22T03:05:26;7.00;;;1.80;;
7659;SDS011;3872;47.902;8.162;2023-11-22T03:07:53;6.63;;;1.47;;
7659;SDS011;3872;47.902;8.162;2023-11-22T03:10:20;7.63;;;1.70;;
7659;SDS011;3872;47.902;8.162;2023-11-22T03:12:52;6.37;;;1.90;;
7659;SDS011;3872;47.902;8.162;2023-11-22T03:15:20;4.10;;;1.40;;
7659;SDS011;3872;47.902;8.162;2023-11-22T03:17:47;4.63;;;1.83;;
7659;SDS011;3872;47.902;8.162;2023-11-22T03:20:14;5.23;;;1.57;;
7659;SDS011;3872;47.902;8.162;2023-11-22T03:22:41;5.37;;;1.30;;
7659;SDS011;3872;47.902;8.162;2023-11-22T03:25:09;5.30;;;1.30;;
7659;SDS011;3872;47.902;8.162;2023-11-22T03:27:36;5.07;;;1.80;;
7659;SDS011;3872;47.902;8.162;2023-11-22T03:30:03;3.80;;;1.33;;
7659;SDS011;3872;47.902;8.162;2023-11-22T03:32:37;6.57;;;1.63;;
7659;SDS011;3872;47.902;8.162;2023-11-22T03:35:05;4.50;;;1.70;;
7659;SDS011;3872;47.902;8.162;2023-11-22T03:37:31;7.47;;;2.00;;
7659;SDS011;3872;47.902;8.162;2023-11-22T03:39:58;5.70;;;2.03;;
7659;SDS011;3872;47.902;8.162;2023-11-22T03:42:25;4.37;;;1.53;;
7659;SDS011;3872;47.902;8.162;2023-11-22T03:44:52;4.20;;;1.87;;
7659;SDS011;3872;47.902;8.162;2023-11-22T03:47:18;5.30;;;1.83;;
7659;SDS011;3872;47.902;8.162;2023-11-22T03:49:47;5.60;;;1.90;;
7659;SDS011;3872;47.902;8.162;2023-11-22T03:52:14;5.53;;;1.70;;
7659;SDS011;3872;47.902;8.162;2023-11-22T03:54:40;4.67;;;1.80;;
7659;SDS011;3872;47.902;8.162;2023-11-22T03:57:07;4.40;;;1.80;;
7659;SDS011;3872;47.902;8.162;2023-11-22T03:59:34;4.53;;;1.67;;
7659;SDS011;3872;47.902;8.162;2023-11-22T04:02:01;5.20;;;2.17;;
7659;SDS011;3872;47.902;8.162;2023-11-22T04:04:29;7.30;;;1.60;;
7659;SDS011;3872;47.902;8.162;2023-11-22T04:06:56;5.23;;;2.03;;
7659;SDS011;3872;47.902;8.162;2023-11-22T04:09:23;4.20;;;1.83;;
7659;SDS011;3872;47.902;8.162;2023-11-22T04:11:50;6.43;;;2.37;;
7659;SDS011;3872;47.902;8.162;2023-11-22T04:14:17;4.50;;;2.07;;
7659;SDS011;3872;47.902;8.162;2023-11-22T04:16:45;6.20;;;2.43;;
7659;SDS011;3872;47.902;8.162;2023-11-22T04:19:12;5.13;;;2.30;;
7659;SDS011;3872;47.902;8.162;2023-11-22T04:21:38;4.80;;;2.20;;
7659;SDS011;3872;47.902;8.162;2023-11-22T04:24:07;5.87;;;1.93;;
7659;SDS011;3872;47.902;8.162;2023-11-22T04:26:34;5.53;;;2.20;;
7659;SDS011;3872;47.902;8.162;2023-11-22T04:29:00;6.77;;;2.40;;
7659;SDS011;3872;47.902;8.162;2023-11-22T04:31:27;4.40;;;2.00;;
7659;SDS011;3872;47.902;8.162;2023-11-22T04:33:53;4.43;;;2.20;;
7659;SDS011;3872;47.902;8.162;2023-11-22T04:36:22;4.97;;;1.87;;
7659;SDS011;3872;47.902;8.162;2023-11-22T04:38:49;4.40;;;2.00;;
7659;SDS011;3872;47.902;8.162;2023-11-22T04:41:17;5.13;;;1.83;;
7659;SDS011;3872;47.902;8.162;2023-11-22T04:43:44;5.03;;;2.20;;
7659;SDS011;3872;47.902;8.162;2023-11-22T04:46:10;4.30;;;1.83;;
7659;SDS011;3872;47.902;8.162;2023-11-22T04:48:38;6.53;;;2.20;;
7659;SDS011;3872;47.902;8.162;2023-11-22T04:51:05;6.67;;;1.83;;
7659;SDS011;3872;47.902;8.162;2023-11-22T04:53:32;4.23;;;1.30;;
7659;SDS011;3872;47.902;8.162;2023-11-22T04:55:58;3.67;;;1.17;;
7659;SDS011;3872;47.902;8.162;2023-11-22T04:58:28;3.50;;;1.07;;
7659;SDS011;3872;47.902;8.162;2023-11-22T05:00:54;3.57;;;1.03;;
7659;SDS011;3872;47.902;8.162;2023-11-22T05:03:23;3.47;;;0.87;;
7659;SDS011;3872;47.902;8.162;2023-11-22T05:05:50;3.30;;;0.63;;
7659;SDS011;3872;47.902;8.162;2023-11-22T05:08:16;3.30;;;0.80;;
7659;SDS011;3872;47.902;8.162;2023-11-22T05:10:43;3.50;;;1.07;;
7659;SDS011;3872;47.902;8.162;2023-11-22T05:13:09;3.27;;;0.80;;
7659;SDS011;3872;47.902;8.162;2023-11-22T05:15:37;3.47;;;1.00;;
7659;SDS011;3872;47.902;8.162;2023-11-22T05:18:04;3.57;;;1.13;;
7659;SDS011;3872;47.902;8.162;2023-11-22T05:20:31;3.20;;;0.70;;
7659;SDS011;3872;47.902;8.162;2023-11-22T05:22:58;3.80;;;1.00;;
7659;SDS011;3872;47.902;8.162;2023-11-22T05:25:24;3.97;;;1.20;;
7659;SDS011;3872;47.902;8.162;2023-11-22T05:27:51;3.50;;;1.00;;
7659;SDS011;3872;47.902;8.162;2023-11-22T05:30:17;3.23;;;0.70;;
7659;SDS011;3872;47.902;8.162;2023-11-22T05:32:45;5.90;;;0.80;;
7659;SDS011;3872;47.902;8.162;2023-11-22T05:35:11;3.40;;;0.87;;
7659;SDS011;3872;47.902;8.162;2023-11-22T05:37:38;3.50;;;1.00;;
7659;SDS011;3872;47.902;8.162;2023-11-22T05:40:05;3.50;;;1.03;;
7659;SDS011;3872;47.902;8.162;2023-11-22T05:42:34;6.70;;;1.10;;
7659;SDS011;3872;47.902;8.162;2023-11-22T05:45:01;6.43;;;1.07;;
7659;SDS011;3872;47.902;8.162;2023-11-22T05:47:29;3.33;;;0.93;;
7659;SDS011;3872;47.902;8.162;2023-11-22T05:49:57;6.43;;;1.00;;
7659;SDS011;3872;47.902;8.162;2023-11-22T05:52:23;3.50;;;0.80;;
7659;SDS011;3872;47.902;8.162;2023-11-22T05:54:50;3.60;;;1.00;;
7659;SDS011;3872;47.902;8.162;2023-11-22T05:57:16;3.70;;;1.20;;
7659;SDS011;3872;47.902;8.162;2023-11-22T05:59:44;3.30;;;0.90;;
7659;SDS011;3872;47.902;8.162;2023-11-22T06:02:11;3.20;;;0.73;;
7659;SDS011;3872;47.902;8.162;2023-11-22T06:04:38;3.40;;;1.00;;
7659;SDS011;3872;47.902;8.162;2023-11-22T06:07:06;3.40;;;0.83;;
7659;SDS011;3872;47.902;8.162;2023-11-22T06:09:33;3.57;;;1.03;;
7659;SDS011;3872;47.902;8.162;2023-11-22T06:12:00;4.20;;;1.10;;
7659;SDS011;3872;47.902;8.162;2023-11-22T06:14:26;3.60;;;1.00;;
7659;SDS011;3872;47.902;8.162;2023-11-22T06:16:53;3.50;;;1.10;;
7659;SDS011;3872;47.902;8.162;2023-11-22T06:19:19;3.50;;;0.90;;
7659;SDS011;3872;47.902;8.162;2023-11-22T06:21:46;3.50;;;0.90;;
7659;SDS011;3872;47.902;8.162;2023-11-22T06:24:13;3.30;;;0.87;;
7659;SDS011;3872;47.902;8.162;2023-11-22T06:26:42;3.50;;;0.90;;
7659;SDS011;3872;47.902;8.162;2023-11-22T06:29:08;3.20;;;0.73;;
7659;SDS011;3872;47.902;8.162;2023-11-22T06:31:35;3.50;;;0.97;;
7659;SDS011;3872;47.902;8.162;2023-11-22T06:34:01;3.37;;;0.80;;
7659;SDS011;3872;47.902;8.162;2023-11-22T06:36:28;3.40;;;1.03;;
7659;SDS011;3872;47.902;8.162;2023-11-22T06:38:56;3.40;;;0.80;;
7659;SDS011;3872;47.902;8.162;2023-11-22T06:41:24;3.30;;;0.80;;
7659;SDS011;3872;47.902;8.162;2023-11-22T06:43:50;4.03;;;0.97;;
7659;SDS011;3872;47.902;8.162;2023-11-22T06:46:18;3.40;;;1.00;;
7659;SDS011;3872;47.902;8.162;2023-11-22T06:48:44;4.10;;;0.90;;
7659;SDS011;3872;47.902;8.162;2023-11-22T06:51:13;3.40;;;1.10;;
7659;SDS011;3872;47.902;8.162;2023-11-22T06:53:40;5.43;;;1.17;;
7659;SDS011;3872;47.902;8.162;2023-11-22T06:56:07;3.27;;;0.90;;
7659;SDS011;3872;47.902;8.162;2023-11-22T06:58:34;3.87;;;1.23;;
7659;SDS011;3872;47.902;8.162;2023-11-22T07:01:01;4.13;;;1.60;;
7659;SDS011;3872;47.902;8.162;2023-11-22T07:03:27;9.13;;;2.20;;
7659;SDS011;3872;47.902;8.162;2023-11-22T07:05:54;4.77;;;1.30;;
7659;SDS011;3872;47.902;8.162;2023-11-22T07:08:22;3.90;;;1.20;;
7659;SDS011;3872;47.902;8.162;2023-11-22T07:10:51;3.90;;;1.10;;
7659;SDS011;3872;47.902;8.162;2023-11-22T07:13:17;3.80;;;1.23;;
7659;SDS011;3872;47.902;8.162;2023-11-22T07:15:45;3.97;;;1.10;;
7659;SDS011;3872;47.902;8.162;2023-11-22T07:18:13;3.70;;;1.07;;
7659;SDS011;3872;47.902;8.162;2023-11-22T07:20:40;3.33;;;0.93;;
7659;SDS011;3872;47.902;8.162;2023-11-22T07:23:07;4.43;;;1.00;;
7659;SDS011;3872;47.902;8.162;2023-11-22T07:25:38;3.77;;;1.10;;
7659;SDS011;3872;47.902;8.162;2023-11-22T07:28:05;3.30;;;0.90;;
7659;SDS011;3872;47.902;8.162;2023-11-22T07:30:31;3.30;;;0.87;;
7659;SDS011;3872;47.902;8.162;2023-11-22T07:33:00;3.60;;;0.80;;
7659;SDS011;3872;47.902;8.162;2023-11-22T07:35:27;3.90;;;1.07;;
7659;SDS011;3872;47.902;8.162;2023-11-22T07:37:54;3.30;;;0.80;;
7659;SDS011;3872;47.902;8.162;2023-11-22T07:40:20;3.40;;;1.00;;
7659;SDS011;3872;47.902;8.162;2023-11-22T07:42:48;3.40;;;1.00;;
7659;SDS011;3872;47.902;8.162;2023-11-22T07:45:14;3.53;;;1.20;;
7659;SDS011;3872;47.902;8.162;2023-11-22T07:47:42;3.60;;;1.10;;
7659;SDS011;3872;47.902;8.162;2023-11-22T07:50:10;4.53;;;1.60;;
7659;SDS011;3872;47.902;8.162;2023-11-22T07:52:37;6.93;;;3.30;;
7659;SDS011;3872;47.902;8.162;2023-11-22T07:55:05;4.77;;;1.93;;
7659;SDS011;3872;47.902;8.162;2023-11-22T07:57:33;30.43;;;9.40;;
7659;SDS011;3872;47.902;8.162;2023-11-22T07:59:59;11.00;;;2.43;;
7659;SDS011;3872;47.902;8.162;2023-11-22T08:02:36;7.33;;;1.40;;
7659;SDS011;3872;47.902;8.162;2023-11-22T08:05:04;4.80;;;1.80;;
7659;SDS011;3872;47.902;8.162;2023-11-22T08:07:34;8.23;;;3.33;;
7659;SDS011;3872;47.902;8.162;2023-11-22T08:10:03;8.70;;;4.30;;
7659;SDS011;3872;47.902;8.162;2023-11-22T08:12:34;5.40;;;2.67;;
7659;SDS011;3872;47.902;8.162;2023-11-22T08:15:02;4.43;;;2.00;;
7659;SDS011;3872;47.902;8.162;2023-11-22T08:17:29;3.70;;;1.70;;
7659;SDS011;3872;47.902;8.162;2023-11-22T08:19:58;5.53;;;2.60;;
7659;SDS011;3872;47.902;8.162;2023-11-22T08:22:25;3.80;;;1.53;;
7659;SDS011;3872;47.902;8.162;2023-11-22T08:24:55;4.33;;;1.60;;
7659;SDS011;3872;47.902;8.162;2023-11-22T08:27:22;3.90;;;1.17;;
7659;SDS011;3872;47.902;8.162;2023-11-22T08:29:49;3.80;;;1.70;;
7659;SDS011;3872;47.902;8.162;2023-11-22T08:32:16;4.13;;;1.67;;
7659;SDS011;3872;47.902;8.162;2023-11-22T08:34:47;4.60;;;2.50;;
7659;SDS011;3872;47.902;8.162;2023-11-22T08:37:13;4.60;;;2.83;;
7659;SDS011;3872;47.902;8.162;2023-11-22T08:39:40;4.83;;;2.10;;
7659;SDS011;3872;47.902;8.162;2023-11-22T08:42:08;4.20;;;1.90;;
7659;SDS011;3872;47.902;8.162;2023-11-22T08:44:35;4.90;;;2.20;;
7659;SDS011;3872;47.902;8.162;2023-11-22T08:47:03;3.90;;;1.70;;
7659;SDS011;3872;47.902;8.162;2023-11-22T08:49:30;3.97;;;1.80;;
7659;SDS011;3872;47.902;8.162;2023-11-22T08:51:57;3.80;;;1.80;;
7659;SDS011;3872;47.902;8.162;2023-11-22T08:54:24;4.10;;;1.80;;
7659;SDS011;3872;47.902;8.162;2023-11-22T08:56:54;4.60;;;1.73;;
7659;SDS011;3872;47.902;8.162;2023-11-22T08:59:23;3.77;;;1.40;;
7659;SDS011;3872;47.902;8.162;2023-11-22T09:01:50;6.27;;;1.50;;
7659;SDS011;3872;47.902;8.162;2023-11-22T09:04:16;4.33;;;1.30;;
7659;SDS011;3872;47.902;8.162;2023-11-22T09:06:43;4.00;;;1.47;;
7659;SDS011;3872;47.902;8.162;2023-11-22T09:09:12;3.53;;;1.27;;
7659;SDS011;3872;47.902;8.162;2023-11-22T09:11:40;4.10;;;1.50;;
7659;SDS011;3872;47.902;8.162;2023-11-22T09:14:07;3.67;;;0.97;;
7659;SDS011;3872;47.902;8.162;2023-11-22T09:16:37;4.50;;;1.60;;
7659;SDS011;3872;47.902;8.162;2023-11-22T09:19:03;3.90;;;1.40;;
7659;SDS011;3872;47.902;8.162;2023-11-22T09:21:31;3.80;;;1.40;;
7659;SDS011;3872;47.902;8.162;2023-11-22T09:23:58;4.40;;;1.60;;
7659;SDS011;3872;47.902;8.162;2023-11-22T09:26:24;9.60;;;1.33;;
7659;SDS011;3872;47.902;8.162;2023-11-22T09:28:51;3.97;;;1.50;;
7659;SDS011;3872;47.902;8.162;2023-11-22T09:31:19;3.80;;;1.40;;
7659;SDS011;3872;47.902;8.162;2023-11-22T09:33:47;4.20;;;1.23;;
7659;SDS011;3872;47.902;8.162;2023-11-22T09:36:13;3.90;;;1.63;;
7659;SDS011;3872;47.902;8.162;2023-11-22T09:38:43;5.10;;;1.93;;
7659;SDS011;3872;47.902;8.162;2023-11-22T09:41:09;5.00;;;1.70;;
7659;SDS011;3872;47.902;8.162;2023-11-22T09:43:36;7.97;;;2.27;;
7659;SDS011;3872;47.902;8.162;2023-11-22T09:46:05;4.00;;;1.30;;
7659;SDS011;3872;47.902;8.162;2023-11-22T09:48:34;3.63;;;1.40;;
7659;SDS011;3872;47.902;8.162;2023-11-22T09:51:05;4.37;;;1.60;;
7659;SDS011;3872;47.902;8.162;2023-11-22T09:53:36;5.20;;;1.80;;
7659;SDS011;3872;47.902;8.162;2023-11-22T09:56:07;5.30;;;1.70;;
7659;SDS011;3872;47.902;8.162;2023-11-22T09:58:35;4.03;;;1.70;;
7659;SDS011;3872;47.902;8.162;2023-11-22T10:01:05;5.03;;;2.33;;
7659;SDS011;3872;47.902;8.162;2023-11-22T10:03:33;4.80;;;2.40;;
7659;SDS011;3872;47.902;8.162;2023-11-22T10:06:01;6.83;;;2.70;;
7659;SDS011;3872;47.902;8.162;2023-11-22T10:08:30;17.13;;;6.47;;
7659;SDS011;3872;47.902;8.162;2023-11-22T10:10:58;15.93;;;7.23;;
7659;SDS011;3872;47.902;8.162;2023-11-22T10:13:25;17.80;;;5.97;;
7659;SDS011;3872;47.902;8.162;2023-11-22T10:15:53;19.37;;;6.50;;
7659;SDS011;3872;47.902;8.162;2023-11-22T10:18:20;22.97;;;8.63;;
7659;SDS011;3872;47.902;8.162;2023-11-22T10:20:47;29.33;;;11.80;;
7659;SDS011;3872;47.902;8.162;2023-11-22T10:23:16;8.80;;;4.67;;
7659;SDS011;3872;47.902;8.162;2023-11-22T10:25:46;5.00;;;2.93;;
7659;SDS011;3872;47.902;8.162;2023-11-22T10:28:15;7.03;;;3.93;;
7659;SDS011;3872;47.902;8.162;2023-11-22T10:30:42;6.80;;;4.27;;
7659;SDS011;3872;47.902;8.162;2023-11-22T10:33:09;5.83;;;3.60;;
7659;SDS011;3872;47.902;8.162;2023-11-22T10:35:38;6.43;;;3.80;;
7659;SDS011;3872;47.902;8.162;2023-11-22T10:38:07;7.17;;;4.70;;
7659;SDS011;3872;47.902;8.162;2023-11-22T10:40:35;5.37;;;2.73;;
7659;SDS011;3872;47.902;8.162;2023-11-22T10:43:03;5.30;;;2.60;;
7659;SDS011;3872;47.902;8.162;2023-11-22T10:45:31;5.40;;;2.90;;
7659;SDS011;3872;47.902;8.162;2023-11-22T10:47:59;5.73;;;2.70;;
7659;SDS011;3872;47.902;8.162;2023-11-22T10:50:26;5.20;;;2.03;;
7659;SDS011;3872;47.902;8.162;2023-11-22T10:52:54;4.90;;;2.47;;
7659;SDS011;3872;47.902;8.162;2023-11-22T10:55:26;4.43;;;1.90;;
7659;SDS011;3872;47.902;8.162;2023-11-22T10:57:54;5.37;;;2.20;;
7659;SDS011;3872;47.902;8.162;2023-11-22T11:00:24;4.50;;;2.00;;
7659;SDS011;3872;47.902;8.162;2023-11-22T11:02:54;4.00;;;1.70;;
7659;SDS011;3872;47.902;8.162;2023-11-22T11:05:27;4.20;;;1.50;;
7659;SDS011;3872;47.902;8.162;2023-11-22T11:07:58;4.20;;;2.07;;
7659;SDS011;3872;47.902;8.162;2023-11-22T11:10:31;4.47;;;2.00;;
7659;SDS011;3872;47.902;8.162;2023-11-22T11:12:58;4.43;;;2.43;;
7659;SDS011;3872;47.902;8.162;2023-11-22T11:15:27;3.87;;;1.97;;
7659;SDS011;3872;47.902;8.162;2023-11-22T11:17:54;12.43;;;4.93;;
7659;SDS011;3872;47.902;8.162;2023-11-22T11:20:22;25.63;;;11.60;;
7659;SDS011;3872;47.902;8.162;2023-11-22T11:22:49;13.93;;;5.67;;
7659;SDS011;3872;47.902;8.162;2023-11-22T11:25:17;16.70;;;6.97;;
7659;SDS011;3872;47.902;8.162;2023-11-22T11:27:44;22.57;;;8.23;;
7659;SDS011;3872;47.902;8.162;2023-11-22T11:33:19;19.40;;;7.03;;
7659;SDS011;3872;47.902;8.162;2023-11-22T11:35:52;21.70;;;8.80;;
7659;SDS011;3872;47.902;8.162;2023-11-22T11:38:26;22.23;;;8.90;;
7659;SDS011;3872;47.902;8.162;2023-11-22T11:40:56;23.03;;;11.27;;
7659;SDS011;3872;47.902;8.162;2023-11-22T11:43:39;8.90;;;5.27;;
7659;SDS011;3872;47.902;8.162;2023-11-22T11:46:06;4.90;;;3.10;;
7659;SDS011;3872;47.902;8.162;2023-11-22T11:48:34;4.03;;;2.27;;
7659;SDS011;3872;47.902;8.162;2023-11-22T11:51:01;3.93;;;2.00;;
7659;SDS011;3872;47.902;8.162;2023-11-22T11:53:27;5.43;;;2.47;;
7659;SDS011;3872;47.902;8.162;2023-11-22T11:55:55;4.43;;;2.03;;
7659;SDS011;3872;47.902;8.162;2023-11-22T11:58:23;9.67;;;2.90;;
7659;SDS011;3872;47.902;8.162;2023-11-22T12:00:50;5.07;;;2.43;;
7659;SDS011;3872;47.902;8.162;2023-11-22T12:03:17;5.00;;;2.70;;
7659;SDS011;3872;47.902;8.162;2023-11-22T12:05:47;5.30;;;2.57;;
7659;SDS011;3872;47.902;8.162;2023-11-22T12:08:15;6.03;;;3.03;;
7659;SDS011;3872;47.902;8.162;2023-11-22T12:10:42;5.43;;;3.33;;
7659;SDS011;3872;47.902;8.162;2023-11-22T12:13:09;7.23;;;3.00;;
7659;SDS011;3872;47.902;8.162;2023-11-22T12:15:35;4.73;;;1.90;;
7659;SDS011;3872;47.902;8.162;2023-11-22T12:18:02;4.80;;;3.13;;
7659;SDS011;3872;47.902;8.162;2023-11-22T12:20:29;9.33;;;3.00;;
7659;SDS011;3872;47.902;8.162;2023-11-22T12:22:58;7.97;;;4.03;;
7659;SDS011;3872;47.902;8.162;2023-11-22T12:25:26;4.70;;;2.13;;
7659;SDS011;3872;47.902;8.162;2023-11-22T12:27:53;6.23;;;4.03;;
7659;SDS011;3872;47.902;8.162;2023-11-22T12:30:32;4.40;;;2.00;;
7659;SDS011;3872;47.902;8.162;2023-11-22T12:33:00;4.57;;;1.97;;
7659;SDS011;3872;47.902;8.162;2023-11-22T12:35:29;5.13;;;2.23;;
7659;SDS011;3872;47.902;8.162;2023-11-22T12:37:59;6.53;;;2.13;;
7659;SDS011;3872;47.902;8.162;2023-11-22T12:40:27;3.90;;;1.60;;
7659;SDS011;3872;47.902;8.162;2023-11-22T12:42:56;4.57;;;1.97;;
7659;SDS011;3872;47.902;8.162;2023-11-22T12:45:24;4.50;;;1.90;;
7659;SDS011;3872;47.902;8.162;2023-11-22T12:47:53;5.70;;;2.00;;
7659;SDS011;3872;47.902;8.162;2023-11-22T12:50:29;3.80;;;1.70;;
7659;SDS011;3872;47.902;8.162;2023-11-22T12:52:57;4.00;;;1.77;;
7659;SDS011;3872;47.902;8.162;2023-11-22T12:55:25;4.20;;;1.80;;
7659;SDS011;3872;47.902;8.162;2023-11-22T12:57:56;4.70;;;1.97;;
7659;SDS011;3872;47.902;8.162;2023-11-22T13:00:24;4.70;;;2.27;;
7659;SDS011;3872;47.902;8.162;2023-11-22T13:02:51;4.60;;;2.20;;
7659;SDS011;3872;47.902;8.162;2023-11-22T13:05:18;5.03;;;2.20;;
7659;SDS011;3872;47.902;8.162;2023-11-22T13:07:44;4.70;;;1.93;;
7659;SDS011;3872;47.902;8.162;2023-11-22T13:10:11;5.30;;;2.17;;
7659;SDS011;3872;47.902;8.162;2023-11-22T13:12:42;4.50;;;1.80;;
7659;SDS011;3872;47.902;8.162;2023-11-22T13:15:10;4.60;;;2.23;;
7659;SDS011;3872;47.902;8.162;2023-11-22T13:17:37;4.50;;;2.20;;
7659;SDS011;3872;47.902;8.162;2023-11-22T13:20:06;5.63;;;2.50;;
7659;SDS011;3872;47.902;8.162;2023-11-22T13:22:38;4.80;;;2.33;;
7659;SDS011;3872;47.902;8.162;2023-11-22T13:25:05;6.00;;;2.27;;
7659;SDS011;3872;47.902;8.162;2023-11-22T13:27:32;4.50;;;2.40;;
7659;SDS011;3872;47.902;8.162;2023-11-22T13:30:01;6.70;;;2.97;;
7659;SDS011;3872;47.902;8.162;2023-11-22T13:32:28;5.20;;;2.53;;
7659;SDS011;3872;47.902;8.162;2023-11-22T13:34:54;8.80;;;3.20;;
7659;SDS011;3872;47.902;8.162;2023-11-22T13:37:22;8.47;;;3.53;;
7659;SDS011;3872;47.902;8.162;2023-11-22T13:39:49;6.13;;;3.23;;
7659;SDS011;3872;47.902;8.162;2023-11-22T13:42:16;6.20;;;3.10;;
7659;SDS011;3872;47.902;8.162;2023-11-22T13:44:42;6.27;;;3.53;;
7659;SDS011;3872;47.902;8.162;2023-11-22T13:47:12;6.70;;;3.13;;
7659;SDS011;3872;47.902;8.162;2023-11-22T13:49:39;5.07;;;2.50;;
7659;SDS011;3872;47.902;8.162;2023-11-22T13:52:07;6.40;;;3.30;;
7659;SDS011;3872;47.902;8.162;2023-11-22T13:54:34;4.97;;;2.57;;
7659;SDS011;3872;47.902;8.162;2023-11-22T13:57:04;7.07;;;3.00;;
7659;SDS011;3872;47.902;8.162;2023-11-22T13:59:31;4.40;;;2.40;;
7659;SDS011;3872;47.902;8.162;2023-11-22T14:01:57;6.87;;;2.93;;
7659;SDS011;3872;47.902;8.162;2023-11-22T14:04:25;9.90;;;2.67;;
7659;SDS011;3872;47.902;8.162;2023-11-22T14:06:52;8.57;;;2.80;;
7659;SDS011;3872;47.902;8.162;2023-11-22T14:09:18;6.00;;;3.07;;
7659;SDS011;3872;47.902;8.162;2023-11-22T14:11:45;6.17;;;2.70;;
7659;SDS011;3872;47.902;8.162;2023-11-22T14:14:12;6.40;;;2.60;;
7659;SDS011;3872;47.902;8.162;2023-11-22T14:16:39;5.90;;;3.00;;
7659;SDS011;3872;47.902;8.162;2023-11-22T14:19:09;7.20;;;3.40;;
7659;SDS011;3872;47.902;8.162;2023-11-22T14:21:37;8.07;;;3.73;;
7659;SDS011;3872;47.902;8.162;2023-11-22T14:24:04;7.43;;;3.50;;
7659;SDS011;3872;47.902;8.162;2023-11-22T14:26:31;5.07;;;2.70;;
7659;SDS011;3872;47.902;8.162;2023-11-22T14:28:58;6.13;;;3.00;;
7659;SDS011;3872;47.902;8.162;2023-11-22T14:31:25;4.27;;;2.10;;
7659;SDS011;3872;47.902;8.162;2023-11-22T14:33:52;7.23;;;2.40;;
7659;SDS011;3872;47.902;8.162;2023-11-22T14:36:21;5.00;;;2.93;;
7659;SDS011;3872;47.902;8.162;2023-11-22T14:38:49;6.90;;;3.23;;
7659;SDS011;3872;47.902;8.162;2023-11-22T14:41:19;5.20;;;2.30;;
7659;SDS011;3872;47.902;8.162;2023-11-22T14:43:46;5.03;;;2.40;;
7659;SDS011;3872;47.902;8.162;2023-11-22T14:46:12;4.20;;;2.23;;
7659;SDS011;3872;47.902;8.162;2023-11-22T14:48:39;5.83;;;2.33;;
7659;SDS011;3872;47.902;8.162;2023-11-22T14:51:06;6.03;;;2.50;;
7659;SDS011;3872;47.902;8.162;2023-11-22T14:53:34;5.33;;;2.50;;
7659;SDS011;3872;47.902;8.162;2023-11-22T14:56:02;6.20;;;2.67;;
7659;SDS011;3872;47.902;8.162;2023-11-22T14:58:29;5.93;;;2.60;;
7659;SDS011;3872;47.902;8.162;2023-11-22T15:00:56;5.70;;;2.27;;
7659;SDS011;3872;47.902;8.162;2023-11-22T15:03:22;6.00;;;2.93;;
7659;SDS011;3872;47.902;8.162;2023-11-22T15:05:49;5.10;;;2.60;;
7659;SDS011;3872;47.902;8.162;2023-11-22T15:08:16;4.70;;;2.10;;
7659;SDS011;3872;47.902;8.162;2023-11-22T15:10:42;6.30;;;2.50;;
7659;SDS011;3872;47.902;8.162;2023-11-22T15:13:10;6.17;;;1.90;;
7659;SDS011;3872;47.902;8.162;2023-11-22T15:15:39;6.07;;;3.27;;
7659;SDS011;3872;47.902;8.162;2023-11-22T15:18:06;5.43;;;3.10;;
7659;SDS011;3872;47.902;8.162;2023-11-22T15:20:32;6.80;;;3.10;;